createdAt,value
2018-05-26T00:00:11.340Z,65.04
2018-05-26T00:02:38.741Z,65.06
2018-05-26T00:05:06.130Z,65.23
2018-05-26T00:07:33.515Z,65.16
2018-05-26T00:10:00.902Z,65.78
2018-05-26T00:12:28.287Z,66.04
2018-05-26T00:14:55.669Z,65.52
2018-05-26T00:17:23.065Z,66.06
2018-05-26T00:19:50.455Z,65.03
2018-05-26T00:22:17.837Z,65.66
2018-05-26T00:24:45.240Z,64.85
2018-05-26T00:27:12.615Z,66.07
2018-05-26T00:29:40.010Z,65.17
2018-05-26T00:32:07.409Z,65.74
2018-05-26T00:34:35.503Z,65.63
2018-05-26T00:37:03.444Z,65.42
2018-05-26T00:39:30.845Z,65.88
2018-05-26T00:41:58.355Z,66.18
2018-05-26T00:44:25.749Z,66.09
2018-05-26T00:46:53.148Z,65.91
2018-05-26T00:49:21.154Z,66.58
2018-05-26T00:51:48.539Z,66.81
2018-05-26T00:54:15.926Z,66.52
2018-05-26T00:56:43.312Z,66.32
2018-05-26T00:59:10.702Z,66.44
2018-05-26T01:01:38.095Z,67.01
2018-05-26T01:04:05.476Z,66.82
2018-05-26T01:06:33.533Z,66.92
2018-05-26T01:09:00.931Z,67.28
2018-05-26T01:11:28.311Z,67.42
2018-05-26T01:13:55.706Z,66.63
2018-05-26T01:16:23.116Z,66.86
2018-05-26T01:18:51.351Z,67.49
2018-05-26T01:21:18.730Z,67.65
2018-05-26T01:23:46.128Z,68.03
2018-05-26T01:26:13.513Z,67.64
2018-05-26T01:28:40.894Z,67.97
2018-05-26T01:31:08.299Z,67.22
2018-05-26T01:33:35.708Z,68.04
2018-05-26T01:36:03.692Z,67.52
2018-05-26T01:38:31.094Z,68.08
2018-05-26T01:40:58.475Z,68.54
2018-05-26T01:43:25.873Z,68.15
2018-05-26T01:45:53.256Z,68.05
2018-05-26T01:48:20.633Z,68.64
2018-05-26T01:50:48.030Z,68.33
2018-05-26T01:53:15.409Z,68.99
2018-05-26T01:55:42.807Z,68.92
2018-05-26T01:58:10.191Z,68.58
2018-05-26T02:00:37.587Z,68.67
2018-05-26T02:03:04.985Z,68.49
2018-05-26T02:05:32.378Z,69.24
2018-05-26T02:07:59.772Z,70.31
2018-05-26T02:10:27.167Z,70.33
2018-05-26T02:12:54.634Z,69.55
2018-05-26T02:15:22.060Z,69.22
2018-05-26T02:17:49.473Z,69.98
2018-05-26T02:20:16.860Z,70.04
2018-05-26T02:22:44.251Z,70.26
2018-05-26T02:25:11.649Z,69.76
2018-05-26T02:27:39.060Z,70.33
2018-05-26T02:30:06.437Z,70.11
2018-05-26T02:32:33.960Z,69.89
2018-05-26T02:35:01.409Z,71.29
2018-05-26T02:37:28.992Z,70.89
2018-05-26T02:39:56.399Z,70.51
2018-05-26T02:42:23.787Z,70.57
2018-05-26T02:44:51.187Z,70.87
2018-05-26T02:47:18.576Z,71.82
2018-05-26T02:49:45.967Z,71.52
2018-05-26T02:52:13.368Z,71.64
2018-05-26T02:54:40.763Z,72.34
2018-05-26T02:57:08.160Z,71.71
2018-05-26T02:59:35.561Z,71.60
2018-05-26T03:02:02.935Z,71.44
2018-05-26T03:04:35.881Z,72.70
2018-05-26T03:07:09.912Z,70.69
2018-05-26T03:09:42.992Z,71.35
2018-05-26T03:12:16.051Z,70.63
2018-05-26T03:14:46.780Z,70.84
2018-05-26T03:20:16.514Z,71.19
2018-05-26T03:22:43.906Z,70.71
2018-05-26T03:25:11.300Z,72.05
2018-05-26T03:27:38.688Z,72.54
2018-05-26T03:30:06.087Z,72.33
2018-05-26T03:32:34.271Z,70.95
2018-05-26T03:35:01.680Z,71.64
2018-05-26T03:37:29.075Z,72.07
2018-05-26T03:39:56.455Z,70.85
2018-05-26T03:42:23.968Z,71.60
2018-05-26T03:44:51.363Z,70.34
2018-05-26T03:47:18.753Z,71.52
2018-05-26T03:49:46.150Z,72.35
2018-05-26T03:52:13.547Z,72.64
2018-05-26T03:54:53.675Z,72.01
2018-05-26T03:57:32.795Z,71.86
2018-05-26T04:00:18.061Z,72.18
2018-05-26T04:02:45.453Z,71.82
2018-05-26T04:05:12.831Z,71.47
2018-05-26T04:07:40.222Z,72.31
2018-05-26T04:10:07.606Z,71.66
2018-05-26T04:12:35.004Z,70.99
2018-05-26T04:15:02.398Z,71.03
2018-05-26T04:17:29.779Z,71.12
2018-05-26T04:19:57.162Z,71.99
2018-05-26T04:22:24.566Z,71.28
2018-05-26T04:24:51.950Z,71.27
2018-05-26T04:27:19.357Z,71.28
2018-05-26T04:29:46.738Z,70.99
2018-05-26T04:32:14.358Z,71.20
2018-05-26T04:34:41.744Z,71.06
2018-05-26T04:37:09.140Z,71.67
2018-05-26T04:39:36.526Z,70.33
2018-05-26T04:42:04.704Z,70.61
2018-05-26T04:44:32.148Z,70.51
2018-05-26T04:46:59.531Z,69.98
2018-05-26T04:49:26.921Z,70.13
2018-05-26T04:51:54.451Z,70.25
2018-05-26T04:54:21.843Z,70.50
2018-05-26T04:56:49.249Z,70.76
2018-05-26T04:59:16.632Z,69.98
2018-05-26T05:01:44.026Z,69.79
2018-05-26T05:04:11.411Z,69.88
2018-05-26T05:06:38.816Z,69.42
2018-05-26T05:09:06.253Z,68.78
2018-05-26T05:11:33.636Z,69.20
2018-05-26T05:14:01.351Z,69.14
2018-05-26T05:16:28.733Z,69.24
2018-05-26T05:18:56.228Z,69.30
2018-05-26T05:21:23.615Z,70.66
2018-05-26T05:23:51.050Z,69.74
2018-05-26T05:26:18.404Z,69.14
2018-05-26T05:28:45.789Z,69.45
2018-05-26T05:31:13.272Z,68.96
2018-05-26T05:33:40.668Z,68.97
2018-05-26T05:36:08.055Z,68.60
2018-05-26T05:38:35.450Z,69.14
2018-05-26T05:41:02.839Z,68.61
2018-05-26T05:43:30.232Z,69.36
2018-05-26T05:45:57.614Z,68.52
2018-05-26T05:48:25.038Z,68.36
2018-05-26T05:50:52.432Z,68.30
2018-05-26T05:53:19.832Z,68.06
2018-05-26T05:55:47.218Z,67.47
2018-05-26T05:58:14.619Z,67.76
2018-05-26T06:00:42.011Z,67.51
2018-05-26T06:03:09.398Z,67.52
2018-05-26T06:05:36.789Z,68.12
2018-05-26T06:08:05.142Z,67.22
2018-05-26T06:10:32.548Z,66.94
2018-05-26T06:12:59.972Z,67.36
2018-05-26T06:15:27.366Z,66.88
2018-05-26T06:17:54.770Z,66.77
2018-05-26T06:20:22.183Z,67.29
2018-05-26T06:22:49.610Z,66.92
2018-05-26T06:25:16.981Z,66.30
2018-05-26T06:27:44.370Z,66.42
2018-05-26T06:30:11.764Z,66.15
2018-05-26T06:32:39.157Z,66.77
2018-05-26T06:35:06.549Z,66.14
2018-05-26T06:37:33.948Z,65.76
2018-05-26T06:40:01.336Z,66.04
2018-05-26T06:42:28.732Z,65.81
2018-05-26T06:44:56.127Z,66.21
2018-05-26T06:47:23.510Z,65.45
2018-05-26T06:49:50.898Z,64.83
2018-05-26T06:52:18.396Z,64.90
2018-05-26T06:54:45.799Z,65.47
2018-05-26T06:57:13.182Z,64.76
2018-05-26T06:59:40.580Z,64.95
2018-05-26T07:02:07.962Z,64.41
2018-05-26T07:04:35.452Z,64.39
2018-05-26T07:07:02.835Z,63.83
2018-05-26T07:09:30.243Z,63.82
2018-05-26T07:11:57.627Z,64.04
2018-05-26T07:14:25.057Z,64.02
2018-05-26T07:16:52.422Z,63.90
2018-05-26T07:19:19.849Z,63.93
2018-05-26T07:21:47.227Z,63.80
2018-05-26T07:24:14.627Z,64.39
2018-05-26T07:26:42.023Z,63.73
2018-05-26T07:29:09.429Z,63.51
2018-05-26T07:31:36.819Z,63.09
2018-05-26T07:34:04.226Z,62.50
2018-05-26T07:36:31.612Z,62.97
2018-05-26T07:38:59.021Z,62.74
2018-05-26T07:41:26.397Z,62.35
2018-05-26T07:43:53.791Z,62.18
2018-05-26T07:46:21.187Z,62.85
2018-05-26T07:48:48.579Z,62.71
2018-05-26T07:51:15.979Z,62.51
2018-05-26T07:53:43.416Z,62.67
2018-05-26T07:56:10.806Z,61.66
2018-05-26T07:58:38.269Z,61.89
2018-05-26T08:01:08.096Z,62.33
2018-05-26T08:03:35.580Z,61.71
2018-05-26T08:06:02.979Z,61.23
2018-05-26T08:08:30.361Z,61.57
2018-05-26T08:10:57.771Z,61.39
2018-05-26T08:13:25.195Z,61.59
2018-05-26T08:15:52.635Z,61.50
2018-05-26T08:18:20.008Z,61.33
2018-05-26T08:20:47.402Z,60.67
2018-05-26T08:23:14.795Z,60.71
2018-05-26T08:25:53.292Z,60.34
2018-05-26T08:28:20.679Z,60.23
2018-05-26T08:30:48.076Z,60.40
2018-05-26T08:33:15.462Z,60.27
2018-05-26T08:35:42.855Z,60.26
2018-05-26T08:38:10.230Z,60.44
2018-05-26T08:40:37.630Z,60.39
2018-05-26T08:43:05.739Z,59.95
2018-05-26T08:45:33.197Z,59.35
2018-05-26T08:48:00.554Z,59.68
2018-05-26T08:50:28.020Z,59.75
2018-05-26T08:52:55.411Z,59.66
2018-05-26T08:55:22.804Z,59.42
2018-05-26T08:57:50.184Z,59.17
2018-05-26T09:00:17.575Z,59.06
2018-05-26T09:02:44.948Z,58.97
2018-05-26T09:05:12.340Z,58.91
2018-05-26T09:07:39.717Z,58.70
2018-05-26T09:10:07.103Z,58.61
2018-05-26T09:12:34.475Z,58.54
2018-05-26T09:15:01.950Z,58.01
2018-05-26T09:17:29.267Z,57.79
2018-05-26T09:19:56.649Z,57.89
2018-05-26T09:22:24.037Z,57.05
2018-05-26T09:24:51.418Z,57.45
2018-05-26T09:27:18.803Z,57.72
2018-05-26T09:29:46.203Z,56.99
2018-05-26T09:32:13.597Z,56.50
2018-05-26T09:34:40.976Z,56.94
2018-05-26T09:37:08.367Z,56.63
2018-05-26T09:39:35.986Z,56.26
2018-05-26T09:42:03.471Z,56.47
2018-05-26T09:44:30.999Z,56.08
2018-05-26T09:46:58.415Z,56.02
2018-05-26T09:49:25.787Z,54.52
2018-05-26T09:51:53.168Z,54.91
2018-05-26T09:54:20.544Z,55.67
2018-05-26T09:56:47.931Z,54.89
2018-05-26T09:59:15.345Z,54.67
2018-05-26T10:01:42.726Z,55.15
2018-05-26T10:04:10.167Z,54.71
2018-05-26T10:06:37.558Z,52.19
2018-05-26T10:09:04.944Z,53.94
2018-05-26T10:11:32.333Z,52.84
2018-05-26T10:13:59.716Z,53.73
2018-05-26T10:16:27.096Z,53.93
2018-05-26T10:18:54.480Z,53.86
2018-05-26T10:21:21.867Z,53.60
2018-05-26T10:23:49.250Z,53.87
2018-05-26T10:26:16.748Z,53.49
2018-05-26T10:28:44.120Z,53.14
2018-05-26T10:31:11.503Z,52.34
2018-05-26T10:33:38.895Z,51.75
2018-05-26T10:36:06.299Z,52.84
2018-05-26T10:38:33.790Z,52.28
2018-05-26T10:41:01.170Z,52.21
2018-05-26T10:43:28.564Z,51.20
2018-05-26T10:46:07.667Z,50.65
2018-05-26T10:48:35.061Z,49.65
2018-05-26T10:51:02.436Z,50.64
2018-05-26T10:53:30.046Z,50.50
2018-05-26T10:55:57.478Z,49.92
2018-05-26T10:58:24.815Z,50.17
2018-05-26T11:00:52.194Z,49.87
2018-05-26T11:03:19.591Z,49.44
2018-05-26T11:05:46.979Z,49.90
2018-05-26T11:08:14.421Z,48.98
2018-05-26T11:10:41.787Z,49.32
2018-05-26T11:13:09.175Z,49.03
2018-05-26T11:15:36.555Z,49.01
2018-05-26T11:18:03.979Z,49.07
2018-05-26T11:20:31.362Z,47.98
2018-05-26T11:22:58.898Z,47.53
2018-05-26T11:25:26.293Z,47.48
2018-05-26T11:27:53.662Z,46.63
2018-05-26T11:30:21.111Z,46.34
2018-05-26T11:32:48.536Z,45.33
2018-05-26T11:35:15.941Z,45.25
2018-05-26T11:37:43.320Z,45.06
2018-05-26T11:40:10.713Z,41.91
2018-05-26T11:42:38.282Z,41.95
2018-05-26T11:45:05.664Z,39.79
2018-05-26T11:47:33.042Z,41.12
2018-05-26T11:50:00.447Z,40.66
2018-05-26T11:52:28.209Z,39.93
2018-05-26T11:54:55.611Z,40.69
2018-05-26T11:57:23.002Z,39.70
2018-05-26T11:59:50.385Z,37.42
2018-05-26T12:02:17.767Z,37.90
2018-05-26T12:04:45.158Z,36.92
2018-05-26T12:07:12.616Z,36.37
2018-05-26T12:09:39.987Z,36.38
2018-05-26T12:12:07.486Z,36.51
2018-05-26T12:14:34.868Z,36.64
2018-05-26T12:17:02.262Z,34.90
2018-05-26T12:19:29.638Z,33.93
2018-05-26T12:21:57.029Z,33.07
2018-05-26T12:24:24.400Z,33.03
2018-05-26T12:26:51.819Z,32.74
2018-05-26T12:29:19.196Z,32.19
2018-05-26T12:31:46.671Z,31.75
2018-05-26T12:34:14.076Z,31.29
2018-05-26T12:36:41.474Z,30.31
2018-05-26T12:39:08.846Z,31.05
2018-05-26T12:41:36.927Z,31.04
2018-05-26T12:44:04.562Z,31.26
2018-05-26T12:46:31.962Z,31.54
2018-05-26T12:48:59.337Z,30.37
2018-05-26T12:51:26.723Z,30.60
2018-05-26T12:53:54.102Z,31.68
2018-05-26T12:56:21.494Z,31.06
2018-05-26T12:58:48.878Z,29.98
2018-05-26T13:01:16.271Z,28.46
2018-05-26T13:03:43.651Z,28.45
2018-05-26T13:06:11.046Z,29.04
2018-05-26T13:08:38.420Z,28.16
2018-05-26T13:11:05.816Z,28.74
2018-05-26T13:13:33.201Z,28.85
2018-05-26T13:16:00.580Z,28.17
2018-05-26T13:18:27.973Z,27.71
2018-05-26T13:20:55.357Z,26.06
2018-05-26T13:23:22.754Z,27.21
2018-05-26T13:25:50.127Z,27.40
2018-05-26T13:28:17.527Z,27.22
2018-05-26T13:30:44.910Z,27.46
2018-05-26T13:33:12.294Z,27.78
2018-05-26T13:35:39.680Z,28.34
2018-05-26T13:38:07.221Z,27.84
2018-05-26T13:40:34.614Z,27.09
2018-05-26T13:43:02.012Z,25.89
2018-05-26T13:45:29.391Z,27.31
2018-05-26T13:47:56.794Z,26.81
2018-05-26T13:50:24.184Z,27.08
2018-05-26T13:52:51.672Z,27.18
2018-05-26T13:55:19.007Z,25.87
2018-05-26T13:57:46.338Z,26.18
2018-05-26T14:00:13.771Z,25.24
2018-05-26T14:02:41.134Z,25.33
2018-05-26T14:05:08.615Z,24.79
2018-05-26T14:07:36.030Z,26.28
2018-05-26T14:10:03.425Z,28.32
2018-05-26T14:12:30.809Z,26.01
2018-05-26T14:14:58.197Z,25.55
2018-05-26T14:17:25.588Z,25.58
2018-05-26T14:19:52.977Z,25.69
2018-05-26T14:22:20.353Z,27.00
2018-05-26T14:24:47.739Z,28.76
2018-05-26T14:27:15.134Z,27.10
2018-05-26T14:29:42.862Z,27.16
2018-05-26T14:32:10.258Z,25.66
2018-05-26T14:34:37.965Z,25.22
2018-05-26T14:37:05.339Z,24.94
2018-05-26T14:39:32.752Z,24.53
2018-05-26T14:42:00.125Z,25.13
2018-05-26T14:44:27.519Z,24.23
2018-05-26T14:46:54.894Z,24.00
2018-05-26T14:49:22.299Z,25.89
2018-05-26T14:51:49.681Z,27.98
2018-05-26T14:54:17.068Z,27.61
2018-05-26T14:56:44.447Z,24.98
2018-05-26T14:59:11.851Z,24.55
2018-05-26T15:01:39.301Z,24.65
2018-05-26T15:04:07.649Z,24.33
2018-05-26T15:06:35.091Z,24.33
2018-05-26T15:09:02.474Z,23.93
2018-05-26T15:11:29.867Z,25.43
2018-05-26T15:13:57.249Z,24.40
2018-05-26T15:16:24.642Z,24.46
2018-05-26T15:18:52.030Z,23.55
2018-05-26T15:21:19.420Z,23.94
2018-05-26T15:23:46.806Z,23.78
2018-05-26T15:26:15.533Z,23.50
2018-05-26T15:28:42.919Z,23.84
2018-05-26T15:31:10.319Z,23.75
2018-05-26T15:33:38.145Z,22.62
2018-05-26T15:36:05.640Z,24.00
2018-05-26T15:38:33.030Z,22.58
2018-05-26T15:41:00.436Z,23.88
2018-05-26T15:43:27.815Z,23.03
2018-05-26T15:45:55.198Z,22.45
2018-05-26T15:48:22.587Z,23.22
2018-05-26T15:50:49.964Z,23.16
2018-05-26T15:53:17.350Z,23.44
2018-05-26T15:55:44.736Z,24.20
2018-05-26T15:58:12.127Z,24.39
2018-05-26T16:00:39.504Z,25.01
2018-05-26T16:03:07.932Z,23.11
2018-05-26T16:05:35.309Z,25.15
2018-05-26T16:08:02.739Z,25.15
2018-05-26T16:10:30.120Z,26.96
2018-05-26T16:12:57.516Z,28.07
2018-05-26T16:15:24.883Z,27.39
2018-05-26T16:17:52.276Z,28.42
2018-05-26T16:20:19.701Z,29.66
2018-05-26T16:22:47.462Z,29.35
2018-05-26T16:25:14.849Z,29.67
2018-05-26T16:27:42.233Z,30.55
2018-05-26T16:30:09.824Z,29.76
2018-05-26T16:32:37.990Z,29.45
2018-05-26T16:35:05.383Z,31.60
2018-05-26T16:37:32.777Z,31.74
2018-05-26T16:40:00.167Z,30.92
2018-05-26T16:42:27.574Z,31.72
2018-05-26T16:44:54.967Z,32.04
2018-05-26T16:47:22.367Z,32.81
2018-05-26T16:49:49.850Z,32.54
2018-05-26T16:52:17.244Z,32.73
2018-05-26T16:54:44.639Z,33.11
2018-05-26T16:57:12.018Z,32.79
2018-05-26T16:59:39.419Z,33.45
2018-05-26T17:02:06.794Z,33.25
2018-05-26T17:04:34.179Z,34.23
2018-05-26T17:07:01.559Z,33.57
2018-05-26T17:09:29.118Z,33.35
2018-05-26T17:11:56.456Z,33.63
2018-05-26T17:14:23.868Z,34.28
2018-05-26T17:16:51.289Z,33.26
2018-05-26T17:19:18.701Z,34.23
2018-05-26T17:21:46.095Z,34.29
2018-05-26T17:24:13.478Z,34.77
2018-05-26T17:26:40.866Z,34.75
2018-05-26T17:29:08.283Z,34.55
2018-05-26T17:31:35.679Z,34.18
2018-05-26T17:34:03.052Z,34.25
2018-05-26T17:36:30.483Z,34.88
2018-05-26T17:38:57.819Z,35.58
2018-05-26T17:41:25.203Z,35.86
2018-05-26T17:43:52.584Z,35.69
2018-05-26T17:46:19.964Z,35.71
2018-05-26T17:48:47.347Z,36.46
2018-05-26T17:51:14.739Z,35.97
2018-05-26T17:53:42.332Z,35.71
2018-05-26T17:56:09.716Z,36.49
2018-05-26T17:58:37.085Z,36.16
2018-05-26T18:01:04.459Z,36.73
2018-05-26T18:03:31.837Z,37.35
2018-05-26T18:05:59.247Z,37.17
2018-05-26T18:08:26.789Z,37.07
2018-05-26T18:10:54.207Z,37.87
2018-05-26T18:13:21.592Z,36.26
2018-05-26T18:15:49.055Z,38.14
2018-05-26T18:18:16.498Z,37.90
2018-05-26T18:20:43.904Z,37.55
2018-05-26T18:23:11.315Z,37.76
2018-05-26T18:25:38.701Z,37.89
2018-05-26T18:28:06.092Z,37.56
2018-05-26T18:30:33.477Z,37.41
2018-05-26T18:33:00.856Z,38.29
2018-05-26T18:35:28.242Z,37.62
2018-05-26T18:37:55.630Z,38.33
2018-05-26T18:40:23.018Z,38.47
2018-05-26T18:42:50.410Z,38.71
2018-05-26T18:45:17.799Z,39.04
2018-05-26T18:47:45.180Z,38.83
2018-05-26T18:50:12.563Z,38.69
2018-05-26T18:52:39.948Z,38.88
2018-05-26T18:55:07.331Z,38.75
2018-05-26T18:57:34.711Z,38.86
2018-05-26T19:00:02.097Z,38.99
2018-05-26T19:02:29.486Z,38.86
2018-05-26T19:04:56.861Z,38.45
2018-05-26T19:07:24.260Z,38.88
2018-05-26T19:09:51.640Z,39.06
2018-05-26T19:12:19.025Z,39.58
2018-05-26T19:14:46.409Z,39.52
2018-05-26T19:17:13.794Z,39.59
2018-05-26T19:19:41.176Z,40.25
2018-05-26T19:22:08.790Z,40.60
2018-05-26T19:24:36.179Z,40.77
2018-05-26T19:27:03.575Z,41.02
2018-05-26T19:29:30.955Z,41.32
2018-05-26T19:31:58.454Z,41.40
2018-05-26T19:34:25.900Z,40.81
2018-05-26T19:36:53.297Z,42.14
2018-05-26T19:39:20.678Z,41.91
2018-05-26T19:41:48.095Z,41.99
2018-05-26T19:44:15.482Z,41.68
2018-05-26T19:46:42.859Z,42.17
2018-05-26T19:49:10.355Z,41.39
2018-05-26T19:51:37.739Z,42.32
2018-05-26T19:54:05.124Z,42.38
2018-05-26T19:56:32.511Z,42.41
2018-05-26T19:58:59.900Z,41.81
2018-05-26T20:01:27.294Z,42.60
2018-05-26T20:03:54.687Z,43.77
2018-05-26T20:06:22.222Z,43.24
2018-05-26T20:08:49.862Z,43.39
2018-05-26T20:11:17.222Z,43.79
2018-05-26T20:13:44.609Z,44.11
2018-05-26T20:16:11.994Z,45.12
2018-05-26T20:18:39.382Z,45.51
2018-05-26T20:21:06.783Z,45.95
2018-05-26T20:23:34.177Z,46.26
2018-05-26T20:26:01.614Z,46.00
2018-05-26T20:28:28.994Z,46.55
2018-05-26T20:30:56.459Z,46.11
2018-05-26T20:33:23.839Z,46.36
2018-05-26T20:35:51.277Z,47.69
2018-05-26T20:38:18.689Z,47.72
2018-05-26T20:40:46.067Z,48.96
2018-05-26T20:43:13.448Z,49.28
2018-05-26T20:45:40.839Z,49.33
2018-05-26T20:48:09.855Z,48.96
2018-05-26T20:50:37.250Z,48.43
2018-05-26T20:53:04.614Z,48.29
2018-05-26T20:55:32.002Z,48.80
2018-05-26T20:57:59.380Z,48.38
2018-05-26T21:00:26.759Z,48.40
2018-05-26T21:02:54.135Z,48.20
2018-05-26T21:05:21.532Z,47.85
2018-05-26T21:07:49.022Z,48.67
2018-05-26T21:10:16.442Z,48.26
2018-05-26T21:12:43.858Z,48.41
2018-05-26T21:15:11.361Z,48.25
2018-05-26T21:17:39.312Z,47.36
2018-05-26T21:20:06.716Z,47.95
2018-05-26T21:22:34.093Z,47.67
2018-05-26T21:25:01.487Z,47.39
2018-05-26T21:27:28.864Z,47.71
2018-05-26T21:29:56.247Z,47.85
2018-05-26T21:32:23.627Z,48.13
2018-05-26T21:34:51.004Z,48.30
2018-05-26T21:37:18.399Z,48.10
2018-05-26T21:39:45.776Z,48.12
2018-05-26T21:42:13.165Z,48.00
2018-05-26T21:44:40.543Z,48.57
2018-05-26T21:47:07.965Z,48.80
2018-05-26T21:49:35.332Z,48.60
2018-05-26T21:52:02.723Z,48.24
2018-05-26T21:54:30.110Z,48.47
2018-05-26T21:56:57.502Z,48.67
2018-05-26T21:59:24.944Z,48.62
2018-05-26T22:01:52.315Z,49.42
2018-05-26T22:04:19.691Z,49.19
2018-05-26T22:06:47.110Z,49.31
2018-05-26T22:09:14.493Z,49.54
2018-05-26T22:11:41.891Z,49.40
2018-05-26T22:14:09.563Z,49.06
2018-05-26T22:16:36.949Z,51.21
2018-05-26T22:19:04.624Z,50.88
2018-05-26T22:21:32.011Z,51.01
2018-05-26T22:23:59.604Z,51.04
2018-05-26T22:26:26.995Z,50.19
2018-05-26T22:28:54.372Z,50.71
2018-05-26T22:31:22.043Z,49.97
2018-05-26T22:33:49.570Z,49.63
2018-05-26T22:36:17.148Z,49.43
2018-05-26T22:38:44.563Z,50.75
2018-05-26T22:41:11.941Z,50.80
2018-05-26T22:43:39.755Z,50.68
2018-05-26T22:46:07.144Z,51.17
2018-05-26T22:48:34.587Z,51.66
2018-05-26T22:51:01.972Z,52.19
2018-05-26T22:53:29.544Z,52.55
2018-05-26T22:55:56.908Z,52.39
2018-05-26T22:58:24.301Z,52.86
2018-05-26T23:00:51.715Z,53.15
2018-05-26T23:03:19.124Z,51.77
2018-05-26T23:05:46.724Z,51.60
2018-05-26T23:08:14.123Z,52.28
2018-05-26T23:10:41.546Z,51.90
2018-05-26T23:13:08.963Z,52.13
2018-05-26T23:15:36.354Z,52.32
2018-05-26T23:18:04.059Z,52.15
2018-05-26T23:20:31.452Z,51.45
2018-05-26T23:22:58.852Z,51.67
2018-05-26T23:25:26.248Z,52.38
2018-05-26T23:27:53.655Z,51.93
2018-05-26T23:30:21.043Z,52.79
2018-05-26T23:32:48.431Z,52.37
2018-05-26T23:35:15.822Z,52.17
2018-05-26T23:37:43.262Z,52.67
2018-05-26T23:40:10.690Z,52.89
2018-05-26T23:42:38.075Z,53.11
2018-05-26T23:45:05.547Z,53.46
2018-05-26T23:47:32.988Z,53.00
2018-05-26T23:50:00.520Z,53.59
2018-05-26T23:52:27.909Z,53.41
2018-05-26T23:54:55.392Z,53.76
2018-05-26T23:57:22.778Z,54.13
2018-05-26T23:59:50.181Z,53.66
